createdAt,value
2018-09-23T00:00:50.887Z,8.67
2018-09-23T00:03:19.808Z,9.37
2018-09-23T00:05:48.437Z,9.03
2018-09-23T00:08:17.036Z,10.00
2018-09-23T00:10:48.843Z,9.00
2018-09-23T00:13:17.442Z,8.77
2018-09-23T00:15:46.042Z,9.67
2018-09-23T00:18:14.678Z,10.00
2018-09-23T00:20:43.237Z,9.37
2018-09-23T00:23:11.823Z,9.40
2018-09-23T00:25:40.459Z,9.40
2018-09-23T00:28:09.032Z,9.83
2018-09-23T00:30:37.632Z,10.57
2018-09-23T00:33:06.243Z,10.17
2018-09-23T00:35:34.850Z,10.20
2018-09-23T00:38:03.464Z,11.10
2018-09-23T00:40:32.145Z,10.87
2018-09-23T00:43:00.753Z,10.93
2018-09-23T00:45:43.488Z,10.80
2018-09-23T00:48:19.005Z,9.93
2018-09-23T00:50:49.968Z,10.63
2018-09-23T00:53:18.517Z,12.13
2018-09-23T00:55:47.109Z,11.23
2018-09-23T00:58:15.735Z,11.57
2018-09-23T01:00:44.393Z,11.57
2018-09-23T01:03:12.947Z,10.87
2018-09-23T01:05:41.564Z,11.00
2018-09-23T01:08:10.141Z,12.30
2018-09-23T01:10:38.849Z,11.33
2018-09-23T01:13:07.530Z,12.07
2018-09-23T01:15:36.208Z,11.17
2018-09-23T01:18:04.847Z,11.83
2018-09-23T01:20:34.127Z,11.40
2018-09-23T01:23:02.756Z,11.90
2018-09-23T01:25:31.338Z,11.87
2018-09-23T01:27:59.968Z,12.37
2018-09-23T01:30:28.557Z,11.97
2018-09-23T01:32:57.151Z,12.30
2018-09-23T01:35:25.797Z,12.53
2018-09-23T01:37:54.430Z,12.60
2018-09-23T01:40:23.009Z,12.47
2018-09-23T01:42:51.645Z,12.00
2018-09-23T01:45:20.227Z,12.63
2018-09-23T01:47:48.827Z,12.43
2018-09-23T01:50:17.441Z,12.20
2018-09-23T01:52:46.023Z,12.30
2018-09-23T01:55:14.600Z,12.63
2018-09-23T01:57:43.206Z,12.97
2018-09-23T02:00:11.891Z,12.37
2018-09-23T02:02:40.466Z,13.20
2018-09-23T02:05:09.083Z,11.90
2018-09-23T02:07:37.656Z,12.27
2018-09-23T02:10:06.263Z,12.90
2018-09-23T02:12:34.898Z,12.90
2018-09-23T02:15:03.506Z,12.73
2018-09-23T02:17:32.107Z,12.37
2018-09-23T02:20:00.707Z,13.63
2018-09-23T02:22:29.287Z,13.23
2018-09-23T02:24:57.859Z,13.20
2018-09-23T02:27:26.457Z,12.47
2018-09-23T02:29:55.096Z,12.70
2018-09-23T02:32:23.672Z,12.87
2018-09-23T02:34:52.263Z,12.97
2018-09-23T02:37:20.845Z,12.13
2018-09-23T02:39:49.513Z,14.70
2018-09-23T02:42:18.165Z,14.20
2018-09-23T02:44:46.744Z,13.77
2018-09-23T02:47:15.343Z,12.67
2018-09-23T02:49:43.940Z,12.83
2018-09-23T02:52:12.531Z,13.53
2018-09-23T02:54:41.155Z,12.73
2018-09-23T02:57:09.756Z,13.73
2018-09-23T02:59:38.309Z,12.27
2018-09-23T03:02:06.908Z,13.47
2018-09-23T03:04:35.757Z,13.00
2018-09-23T03:07:04.425Z,12.90
2018-09-23T03:09:32.991Z,13.90
2018-09-23T03:12:01.580Z,13.90
2018-09-23T03:14:30.143Z,14.17
2018-09-23T03:16:58.721Z,13.57
2018-09-23T03:19:27.341Z,12.67
2018-09-23T03:21:55.939Z,14.03
2018-09-23T03:24:24.514Z,12.80
2018-09-23T03:26:53.109Z,13.60
2018-09-23T03:29:22.263Z,14.53
2018-09-23T03:31:50.903Z,13.73
2018-09-23T03:34:19.560Z,13.60
2018-09-23T03:36:48.199Z,14.20
2018-09-23T03:39:16.777Z,14.37
2018-09-23T03:41:45.390Z,13.70
2018-09-23T03:44:14.012Z,14.00
2018-09-23T03:46:43.340Z,15.03
2018-09-23T03:49:12.041Z,14.87
2018-09-23T03:51:40.633Z,14.83
2018-09-23T03:54:11.334Z,13.63
2018-09-23T03:56:40.233Z,15.50
2018-09-23T03:59:08.847Z,14.87
2018-09-23T04:01:37.538Z,14.77
2018-09-23T04:04:06.628Z,15.17
2018-09-23T04:06:35.578Z,15.83
2018-09-23T04:09:05.302Z,14.83
2018-09-23T04:11:33.922Z,15.03
2018-09-23T04:14:02.507Z,15.47
2018-09-23T04:16:31.082Z,14.13
2018-09-23T04:18:59.722Z,15.03
2018-09-23T04:21:28.294Z,15.90
2018-09-23T04:23:56.867Z,15.80
2018-09-23T04:26:25.486Z,14.33
2018-09-23T04:28:54.068Z,16.97
2018-09-23T04:31:22.650Z,15.63
2018-09-23T04:33:51.289Z,15.33
2018-09-23T04:36:19.907Z,15.73
2018-09-23T04:38:48.473Z,16.63
2018-09-23T04:41:17.134Z,15.90
2018-09-23T04:43:45.732Z,15.43
2018-09-23T04:46:14.362Z,15.73
2018-09-23T04:48:44.122Z,16.43
2018-09-23T04:51:12.883Z,15.37
2018-09-23T04:53:41.518Z,17.50
2018-09-23T04:56:10.146Z,15.50
2018-09-23T04:58:38.737Z,16.37
2018-09-23T05:01:07.325Z,15.53
2018-09-23T05:03:35.955Z,16.83
2018-09-23T05:06:04.563Z,16.87
2018-09-23T05:08:33.199Z,16.43
2018-09-23T05:11:01.828Z,16.20
2018-09-23T05:13:32.122Z,15.23
2018-09-23T05:16:01.101Z,16.43
2018-09-23T05:18:29.689Z,16.60
2018-09-23T05:20:58.760Z,16.17
2018-09-23T05:23:27.953Z,16.17
2018-09-23T05:25:59.677Z,17.90
2018-09-23T05:28:28.318Z,15.90
2018-09-23T05:30:56.953Z,17.53
2018-09-23T05:33:25.782Z,16.70
2018-09-23T05:35:54.588Z,15.97
2018-09-23T05:38:23.246Z,17.17
2018-09-23T05:40:51.812Z,17.97
2018-09-23T05:43:20.452Z,16.57
2018-09-23T05:45:49.078Z,16.33
2018-09-23T05:48:17.679Z,17.20
2018-09-23T05:50:46.353Z,17.47
2018-09-23T05:53:14.977Z,16.40
2018-09-23T05:55:43.509Z,18.13
2018-09-23T05:58:12.122Z,16.90
2018-09-23T06:00:43.734Z,16.93
2018-09-23T06:03:12.394Z,15.63
2018-09-23T06:05:40.959Z,17.63
2018-09-23T06:08:09.598Z,18.23
2018-09-23T06:10:38.213Z,17.27
2018-09-23T06:13:06.823Z,17.37
2018-09-23T06:15:35.432Z,17.03
2018-09-23T06:18:04.074Z,17.27
2018-09-23T06:20:32.705Z,17.93
2018-09-23T06:23:01.482Z,17.77
2018-09-23T06:25:30.417Z,18.00
2018-09-23T06:27:59.027Z,18.13
2018-09-23T06:30:27.650Z,16.87
2018-09-23T06:32:56.315Z,18.23
2018-09-23T06:35:24.975Z,19.57
2018-09-23T06:37:53.611Z,17.67
2018-09-23T06:40:22.285Z,17.97
2018-09-23T06:42:50.943Z,19.87
2018-09-23T06:45:19.564Z,18.57
2018-09-23T06:47:48.207Z,18.87
2018-09-23T06:50:16.820Z,18.50
2018-09-23T06:52:45.431Z,17.63
2018-09-23T06:55:14.119Z,19.03
2018-09-23T06:57:42.720Z,19.20
2018-09-23T07:00:11.350Z,18.13
2018-09-23T07:02:40.357Z,19.50
2018-09-23T07:05:08.992Z,18.90
2018-09-23T07:07:37.633Z,18.90
2018-09-23T07:10:06.730Z,19.10
2018-09-23T07:12:35.334Z,19.13
2018-09-23T07:15:04.217Z,18.70
2018-09-23T07:17:33.035Z,18.30
2018-09-23T07:20:01.647Z,19.33
2018-09-23T07:22:30.311Z,19.90
2018-09-23T07:24:59.059Z,19.63
2018-09-23T07:27:27.823Z,18.30
2018-09-23T07:29:56.492Z,19.40
2018-09-23T07:32:25.114Z,20.93
2018-09-23T07:35:00.212Z,19.93
2018-09-23T07:37:28.871Z,19.67
2018-09-23T07:39:57.546Z,22.27
2018-09-23T07:42:26.275Z,19.27
2018-09-23T07:44:54.908Z,20.33
2018-09-23T07:47:23.531Z,19.33
2018-09-23T07:49:52.177Z,21.00
2018-09-23T07:52:20.826Z,19.57
2018-09-23T07:54:49.434Z,20.30
2018-09-23T07:57:18.058Z,20.60
2018-09-23T07:59:46.712Z,20.33
2018-09-23T08:02:15.361Z,21.37
2018-09-23T08:04:44.017Z,20.53
2018-09-23T08:07:12.727Z,22.30
2018-09-23T08:09:41.356Z,22.13
2018-09-23T08:12:10.748Z,20.57
2018-09-23T08:14:39.765Z,19.97
2018-09-23T08:17:08.231Z,22.20
2018-09-23T08:19:37.026Z,21.77
2018-09-23T08:22:05.546Z,19.83
2018-09-23T08:24:34.217Z,19.47
2018-09-23T08:27:02.847Z,20.90
2018-09-23T08:29:31.529Z,20.53
2018-09-23T08:32:00.189Z,19.90
2018-09-23T08:34:28.877Z,20.70
2018-09-23T08:36:57.530Z,19.43
2018-09-23T08:39:26.163Z,19.93
2018-09-23T08:41:54.870Z,20.53
2018-09-23T08:44:23.515Z,19.93
2018-09-23T08:46:52.193Z,19.17
2018-09-23T08:49:20.935Z,21.67
2018-09-23T08:51:49.615Z,19.37
2018-09-23T08:54:18.239Z,18.30
2018-09-23T08:56:46.864Z,17.63
2018-09-23T08:59:15.516Z,19.53
2018-09-23T09:01:44.786Z,19.63
2018-09-23T09:04:13.413Z,20.13
2018-09-23T09:06:42.090Z,16.93
2018-09-23T09:09:10.719Z,17.27
2018-09-23T09:11:39.397Z,18.73
2018-09-23T09:14:08.014Z,18.53
2018-09-23T09:16:36.680Z,18.13
2018-09-23T09:19:05.336Z,17.60
2018-09-23T09:21:33.990Z,17.97
2018-09-23T09:24:02.611Z,17.93
2018-09-23T09:26:31.279Z,17.33
2018-09-23T09:28:59.896Z,17.47
2018-09-23T09:31:28.490Z,20.00
2018-09-23T09:33:57.453Z,18.57
2018-09-23T09:36:26.147Z,18.00
2018-09-23T09:38:54.786Z,20.10
2018-09-23T09:41:23.439Z,19.10
2018-09-23T09:43:52.081Z,19.07
2018-09-23T09:46:20.804Z,18.67
2018-09-23T09:48:49.450Z,18.67
2018-09-23T09:51:18.166Z,18.00
2018-09-23T09:53:46.806Z,17.57
2018-09-23T09:56:15.435Z,17.10
2018-09-23T09:58:44.084Z,17.60
2018-09-23T10:01:12.692Z,17.30
2018-09-23T10:03:41.358Z,18.50
2018-09-23T10:06:10.054Z,17.70
2018-09-23T10:08:38.698Z,19.60
2018-09-23T10:11:07.342Z,18.83
2018-09-23T10:13:36.024Z,18.40
2018-09-23T10:16:04.708Z,18.33
2018-09-23T10:18:33.379Z,17.87
2018-09-23T10:21:02.025Z,17.37
2018-09-23T10:23:30.795Z,18.13
2018-09-23T10:25:59.742Z,18.23
2018-09-23T10:28:28.596Z,17.83
2018-09-23T10:30:57.313Z,18.73
2018-09-23T10:33:26.032Z,18.67
2018-09-23T10:35:55.529Z,17.67
2018-09-23T10:38:24.370Z,19.50
2018-09-23T10:40:53.010Z,18.07
2018-09-23T10:43:21.970Z,18.13
2018-09-23T10:45:50.637Z,18.87
2018-09-23T10:48:22.201Z,18.40
2018-09-23T10:50:50.904Z,17.47
2018-09-23T10:53:19.579Z,18.00
2018-09-23T10:55:48.278Z,19.07
2018-09-23T10:58:16.916Z,18.30
2018-09-23T11:00:45.600Z,18.37
2018-09-23T11:03:14.293Z,19.07
2018-09-23T11:05:43.025Z,18.73
2018-09-23T11:08:11.714Z,18.13
2018-09-23T11:10:40.423Z,18.23
2018-09-23T11:13:09.185Z,19.30
2018-09-23T11:15:37.936Z,17.50
2018-09-23T11:18:06.777Z,17.40
2018-09-23T11:20:39.250Z,18.70
2018-09-23T11:23:08.032Z,18.70
2018-09-23T11:25:36.676Z,20.83
2018-09-23T11:28:05.471Z,18.90
2018-09-23T11:30:34.179Z,19.10
2018-09-23T11:33:02.834Z,19.25
2018-09-23T11:35:31.467Z,20.17
2018-09-23T11:38:00.287Z,18.33
2018-09-23T11:40:28.977Z,20.57
2018-09-23T11:42:57.734Z,22.73
2018-09-23T11:45:27.296Z,19.33
2018-09-23T11:47:55.960Z,19.10
2018-09-23T11:50:24.705Z,20.45
2018-09-23T11:52:53.390Z,19.73
2018-09-23T11:55:22.071Z,19.70
2018-09-23T11:57:50.761Z,19.23
2018-09-23T12:00:19.454Z,19.17
2018-09-23T12:02:48.192Z,20.17
2018-09-23T12:05:28.373Z,18.90
2018-09-23T12:07:57.092Z,18.37
2018-09-23T12:10:25.832Z,18.00
2018-09-23T12:12:54.807Z,20.47
2018-09-23T12:15:23.958Z,19.40
2018-09-23T12:17:52.623Z,18.43
2018-09-23T12:20:22.008Z,18.10
2018-09-23T12:22:50.718Z,18.07
2018-09-23T12:25:19.484Z,18.33
2018-09-23T12:27:48.250Z,16.97
2018-09-23T12:30:17.664Z,18.27
2018-09-23T12:32:46.386Z,17.77
2018-09-23T12:35:15.096Z,16.80
2018-09-23T12:37:43.873Z,15.97
2018-09-23T12:40:12.544Z,12.13
2018-09-23T12:42:42.726Z,9.97
2018-09-23T12:45:11.382Z,10.90
2018-09-23T12:47:40.036Z,9.77
2018-09-23T12:50:08.850Z,8.57
2018-09-23T12:52:37.479Z,8.57
2018-09-23T12:55:06.621Z,8.87
2018-09-23T12:57:35.270Z,7.87
2018-09-23T13:00:04.335Z,8.43
2018-09-23T13:02:33.136Z,8.43
2018-09-23T13:05:01.829Z,8.57
2018-09-23T13:07:32.504Z,7.33
2018-09-23T13:10:01.210Z,7.07
2018-09-23T13:12:29.974Z,5.27
2018-09-23T13:14:58.716Z,7.20
2018-09-23T13:17:33.855Z,6.57
2018-09-23T13:20:02.529Z,5.50
2018-09-23T13:22:31.240Z,7.07
2018-09-23T13:24:59.936Z,6.43
2018-09-23T13:27:28.755Z,8.37
2018-09-23T13:29:57.523Z,7.83
2018-09-23T13:32:26.266Z,7.00
2018-09-23T13:34:54.942Z,8.20
2018-09-23T13:37:23.582Z,6.50
2018-09-23T13:39:52.252Z,6.57
2018-09-23T13:42:20.921Z,5.57
2018-09-23T13:44:49.573Z,4.83
2018-09-23T13:47:18.234Z,5.27
2018-09-23T13:49:46.891Z,5.10
2018-09-23T13:52:15.574Z,5.00
2018-09-23T13:54:44.253Z,4.30
2018-09-23T13:57:12.894Z,4.27
2018-09-23T13:59:41.602Z,4.70
2018-09-23T14:02:10.317Z,2.50
2018-09-23T14:04:38.954Z,2.50
2018-09-23T14:07:07.645Z,2.47
2018-09-23T14:09:36.409Z,2.27
2018-09-23T14:12:05.141Z,3.33
2018-09-23T14:14:33.791Z,2.53
2018-09-23T14:17:02.532Z,1.63
2018-09-23T14:19:31.264Z,1.90
2018-09-23T14:21:59.929Z,1.20
2018-09-23T14:24:28.613Z,1.87
2018-09-23T14:26:57.236Z,1.80
2018-09-23T14:29:25.861Z,1.60
2018-09-23T14:31:54.618Z,1.20
2018-09-23T14:34:23.287Z,1.20
2018-09-23T14:36:51.961Z,1.87
2018-09-23T14:39:20.684Z,2.07
2018-09-23T14:41:49.746Z,1.20
2018-09-23T14:44:18.468Z,0.80
2018-09-23T14:46:47.224Z,2.07
2018-09-23T14:49:15.901Z,0.80
2018-09-23T14:51:44.647Z,0.87
2018-09-23T14:54:13.448Z,0.67
2018-09-23T14:56:42.081Z,0.90
2018-09-23T14:59:10.783Z,0.70
2018-09-23T15:01:39.531Z,0.53
2018-09-23T15:04:08.183Z,0.80
2018-09-23T15:06:36.896Z,1.17
2018-09-23T15:09:08.332Z,0.70
2018-09-23T15:11:37.186Z,2.87
2018-09-23T15:14:05.918Z,1.63
2018-09-23T15:16:35.595Z,3.00
2018-09-23T15:19:04.327Z,1.53
2018-09-23T15:21:32.966Z,1.20
2018-09-23T15:24:01.624Z,0.73
2018-09-23T15:26:30.255Z,1.00
2018-09-23T15:28:58.946Z,1.53
2018-09-23T15:31:27.610Z,0.93
2018-09-23T15:33:57.168Z,1.43
2018-09-23T15:36:25.868Z,1.10
2018-09-23T15:38:54.546Z,1.27
2018-09-23T15:41:23.246Z,2.73
2018-09-23T15:43:52.009Z,1.23
2018-09-23T15:46:20.710Z,1.37
2018-09-23T15:48:49.458Z,1.77
2018-09-23T15:51:18.089Z,1.60
2018-09-23T15:53:46.826Z,2.30
2018-09-23T15:56:16.368Z,4.00
2018-09-23T15:58:45.032Z,1.97
2018-09-23T16:01:13.696Z,0.90
2018-09-23T16:03:42.336Z,0.90
2018-09-23T16:06:10.987Z,0.80
2018-09-23T16:08:39.710Z,0.70
2018-09-23T16:11:08.339Z,0.97
2018-09-23T16:13:36.983Z,0.80
2018-09-23T16:16:05.682Z,0.70
2018-09-23T16:18:34.439Z,0.87
2018-09-23T16:21:03.102Z,0.80
2018-09-23T16:23:32.021Z,1.23
2018-09-23T16:26:00.709Z,0.90
2018-09-23T16:28:29.402Z,1.20
2018-09-23T16:30:58.229Z,3.63
2018-09-23T16:33:27.934Z,3.93
2018-09-23T16:35:56.688Z,6.13
2018-09-23T16:38:25.507Z,1.90
2018-09-23T16:40:54.230Z,1.33
2018-09-23T16:43:22.975Z,1.00
2018-09-23T16:45:51.666Z,0.80
2018-09-23T16:48:20.321Z,0.80
2018-09-23T16:50:48.962Z,0.93
2018-09-23T16:53:17.697Z,0.73
2018-09-23T16:55:46.356Z,3.67
2018-09-23T16:58:14.978Z,2.07
2018-09-23T17:00:43.872Z,1.67
2018-09-23T17:03:12.380Z,2.37
2018-09-23T17:05:41.115Z,1.47
2018-09-23T17:08:09.831Z,1.37
2018-09-23T17:10:38.509Z,1.30
2018-09-23T17:13:07.186Z,1.10
2018-09-23T17:15:35.918Z,1.43
2018-09-23T17:18:04.632Z,1.13
2018-09-23T17:20:33.319Z,4.60
2018-09-23T17:23:02.057Z,1.93
2018-09-23T17:25:30.771Z,3.77
2018-09-23T17:27:59.501Z,2.00
2018-09-23T17:30:28.171Z,1.90
2018-09-23T17:32:57.790Z,1.83
2018-09-23T17:35:26.484Z,3.07
2018-09-23T17:37:55.185Z,2.57
2018-09-23T17:40:24.625Z,2.23
2018-09-23T17:42:53.359Z,2.43
2018-09-23T17:45:22.098Z,2.03
2018-09-23T17:47:50.741Z,1.60
2018-09-23T17:50:20.376Z,1.53
2018-09-23T17:52:49.150Z,1.30
2018-09-23T17:55:17.827Z,2.00
2018-09-23T17:57:46.480Z,1.97
2018-09-23T18:00:15.235Z,1.30
2018-09-23T18:02:44.626Z,1.87
2018-09-23T18:05:13.361Z,2.43
2018-09-23T18:07:42.014Z,1.40
2018-09-23T18:10:10.747Z,1.50
2018-09-23T18:12:39.515Z,1.43
2018-09-23T18:15:08.341Z,1.30
2018-09-23T18:17:36.980Z,1.80
2018-09-23T18:20:06.870Z,2.20
2018-09-23T18:22:36.321Z,1.60
2018-09-23T18:25:05.046Z,1.63
2018-09-23T18:27:33.704Z,1.50
2018-09-23T18:30:02.443Z,1.60
2018-09-23T18:32:31.057Z,0.63
2018-09-23T18:34:59.815Z,1.27
2018-09-23T18:37:28.563Z,0.90
2018-09-23T18:39:57.256Z,1.50
2018-09-23T18:42:25.954Z,1.30
2018-09-23T18:44:54.865Z,1.33
2018-09-23T18:47:23.582Z,5.03
2018-09-23T18:49:52.396Z,10.50
2018-09-23T18:52:21.084Z,2.07
2018-09-23T18:54:55.083Z,3.30
2018-09-23T18:57:23.788Z,1.20
2018-09-23T18:59:53.921Z,1.17
2018-09-23T19:02:22.616Z,1.13
2018-09-23T19:04:53.234Z,2.13
2018-09-23T19:07:21.870Z,0.80
2018-09-23T19:09:50.685Z,0.87
2018-09-23T19:12:19.417Z,1.00
2018-09-23T19:14:48.117Z,1.40
2018-09-23T19:17:16.822Z,1.37
2018-09-23T19:19:50.953Z,0.80
2018-09-23T19:22:25.030Z,1.60
2018-09-23T19:24:53.721Z,1.40
2018-09-23T19:27:22.386Z,1.67
2018-09-23T19:29:51.035Z,1.07
2018-09-23T19:32:20.001Z,0.93
2018-09-23T19:34:48.668Z,0.80
2018-09-23T19:37:17.327Z,0.80
2018-09-23T19:39:46.025Z,0.60
2018-09-23T19:42:14.837Z,1.10
2018-09-23T19:44:43.713Z,0.70
2018-09-23T19:47:12.378Z,0.70
2018-09-23T19:49:41.725Z,0.80
2018-09-23T19:52:10.391Z,0.73
2018-09-23T19:54:39.096Z,0.70
2018-09-23T19:57:07.407Z,1.97
2018-09-23T19:59:36.065Z,1.00
2018-09-23T20:02:04.763Z,0.87
2018-09-23T20:04:33.450Z,1.13
2018-09-23T20:07:02.229Z,1.57
2018-09-23T20:09:30.953Z,0.80
2018-09-23T20:11:59.618Z,0.97
2018-09-23T20:14:28.301Z,0.90
2018-09-23T20:16:56.987Z,1.10
2018-09-23T20:19:25.616Z,1.00
2018-09-23T20:21:54.230Z,0.70
2018-09-23T20:24:23.171Z,0.97
2018-09-23T20:26:51.917Z,1.13
2018-09-23T20:29:20.607Z,1.40
2018-09-23T20:31:49.287Z,1.40
2018-09-23T20:34:17.914Z,1.87
2018-09-23T20:36:46.649Z,1.40
2018-09-23T20:39:15.435Z,1.60
2018-09-23T20:41:44.075Z,1.53
2018-09-23T20:44:12.769Z,0.90
2018-09-23T20:46:41.591Z,1.13
2018-09-23T20:49:10.271Z,1.30
2018-09-23T20:51:38.930Z,1.40
2018-09-23T20:54:07.720Z,2.03
2018-09-23T20:56:36.619Z,1.40
2018-09-23T20:59:05.304Z,1.13
2018-09-23T21:01:34.018Z,1.40
2018-09-23T21:04:02.785Z,1.27
2018-09-23T21:06:31.570Z,1.40
2018-09-23T21:09:00.498Z,1.40
2018-09-23T21:11:29.390Z,1.00
2018-09-23T21:13:58.333Z,1.03
2018-09-23T21:16:30.974Z,1.83
2018-09-23T21:18:59.683Z,1.57
2018-09-23T21:21:28.508Z,0.70
2018-09-23T21:23:57.198Z,0.83
2018-09-23T21:26:25.892Z,0.80
2018-09-23T21:28:54.576Z,0.60
2018-09-23T21:31:23.579Z,0.70
2018-09-23T21:33:52.223Z,0.70
2018-09-23T21:36:21.704Z,0.60
2018-09-23T21:38:50.436Z,1.50
2018-09-23T21:41:19.098Z,0.83
2018-09-23T21:43:47.732Z,0.90
2018-09-23T21:46:16.422Z,1.23
2018-09-23T21:48:45.861Z,0.60
2018-09-23T21:51:14.514Z,0.97
2018-09-23T21:53:43.204Z,0.67
2018-09-23T21:56:11.904Z,0.80
2018-09-23T21:58:40.675Z,0.73
2018-09-23T22:01:09.616Z,0.80
2018-09-23T22:03:38.297Z,0.50
2018-09-23T22:06:07.257Z,0.73
2018-09-23T22:08:35.963Z,0.70
2018-09-23T22:11:04.832Z,0.90
2018-09-23T22:13:33.533Z,0.60
2018-09-23T22:16:02.188Z,0.90
2018-09-23T22:18:30.876Z,0.80
2018-09-23T22:20:59.522Z,1.37
2018-09-23T22:23:28.209Z,1.07
2018-09-23T22:25:56.935Z,0.93
2018-09-23T22:28:25.561Z,1.00
2018-09-23T22:30:54.240Z,1.20
2018-09-23T22:33:22.879Z,0.90
2018-09-23T22:35:51.540Z,1.30
2018-09-23T22:38:20.274Z,0.87
2018-09-23T22:40:48.854Z,0.67
2018-09-23T22:43:17.470Z,0.90
2018-09-23T22:45:46.236Z,0.67
2018-09-23T22:48:15.022Z,1.10
2018-09-23T22:50:43.620Z,0.97
2018-09-23T22:53:12.536Z,1.27
2018-09-23T22:55:41.325Z,0.80
2018-09-23T22:58:10.025Z,0.73
2018-09-23T23:00:38.661Z,0.87
2018-09-23T23:03:07.345Z,1.00
2018-09-23T23:05:35.978Z,0.80
2018-09-23T23:08:04.618Z,1.13
2018-09-23T23:10:33.257Z,0.80
2018-09-23T23:13:01.913Z,0.87
2018-09-23T23:15:30.591Z,0.90
2018-09-23T23:17:59.220Z,1.10
2018-09-23T23:20:27.885Z,0.73
2018-09-23T23:22:56.523Z,0.90
2018-09-23T23:25:25.117Z,0.93
2018-09-23T23:27:53.714Z,1.13
2018-09-23T23:30:22.421Z,1.20
2018-09-23T23:32:51.009Z,0.90
2018-09-23T23:35:19.600Z,0.93
2018-09-23T23:37:48.279Z,1.17
2018-09-23T23:40:16.947Z,0.60
2018-09-23T23:42:45.567Z,0.63
2018-09-23T23:45:14.235Z,1.10
2018-09-23T23:47:42.868Z,0.80
2018-09-23T23:50:11.511Z,0.70
2018-09-23T23:52:40.186Z,0.87
2018-09-23T23:55:08.405Z,1.00
2018-09-23T23:57:36.998Z,1.10
